• Join FlightAware (Why Join?)
  • Login
  • US Flag 
04:15PM EST


 

Airport Tracker/Info


-or-


 

Live Flight TrackerFlight Track Log ✈ SWA2852 ✈ 01-May-2013 ✈ KROC - KMDW

Flight Track Log - Related Links

Times and Time Zones

All times are in EDT time to prevent confusion due to time zone crossing. See the SWA2852 flight status page for this flight to view local times or setup timezone preferences in your user account.

Time Position Orientation Groundspeed Altitude Reporting Facility
EDT Latitude Longitude Course Direction KTS MPH feet Rate Location/Type
04:02PM 43.0994 -77.6944 197° South 148 170 1,300  Level Cleveland Center
04:04PM 43.0375 -77.7200 197° South 193 222 4,100 2,640 Climbing Cleveland Center
04:05PM 42.9733 -77.7342 189° South 216 249 7,600 3,240 Climbing Cleveland Center
04:06PM 42.9028 -77.7517 190° South 243 280 10,700 2,760 Climbing Cleveland Center
04:07PM 42.8117 -77.7783 192° South 289 333 13,100 2,940 Climbing Cleveland Center
04:08PM 42.7164 -77.7967 188° South 354 407 16,600 3,480 Climbing Cleveland Center
04:09PM 42.5900 -77.8306 191° South 382 440 20,100 3,000 Climbing Cleveland Center
04:10PM 42.5022 -77.9161 216° Southwest 371 427 22,600 2,520 Climbing Cleveland Center
04:11PM 42.4725 -78.0694 255° West 371 427 25,300 2,340 Climbing Cleveland Center
04:12PM 42.4508 -78.2306 260° West 405 466 27,400 2,040 Climbing Cleveland Center
04:13PM 42.4269 -78.3947 259° West 428 493 29,400 1,860 Climbing Cleveland Center
04:14PM 42.4050 -78.5669 260° West 445 512 31,200 1,260 Climbing Cleveland Center
04:15PM 42.3808 -78.7392 259° West 466 536 32,000 360 Climbing Cleveland Center
04:16PM 42.3600 -78.8747 258° West 466 536 32,000  Level Cleveland Center
04:17PM 42.3169 -79.0725 254° West 466 536 32,000 780 Level Cleveland Center
04:18PM 42.2689 -79.2336 248° West 466 536 33,600 1,740 Climbing Cleveland Center
04:19PM 42.2417 -79.4025 258° West 466 536 35,500 1,800 Climbing Cleveland Center
04:20PM 42.2181 -79.5683 259° West 455 524 37,300 1,680 Climbing Cleveland Center
04:21PM 42.1967 -79.7311 260° West 449 517 38,900 1,320 Climbing Cleveland Center
04:22PM 42.1725 -79.8883 258° West 449 517 40,000 540 Climbing Cleveland Center
04:23PM 42.1506 -80.0483 260° West 449 517 40,000  Level Cleveland Center
04:24PM 42.1242 -80.2053 257° West 439 505 40,000  Level Cleveland Center
04:25PM 42.1036 -80.3650 260° West 434 499 40,000  Level Cleveland Center
04:26PM 42.0831 -80.5019 259° West 425 489 40,000  Level Cleveland Center
04:27PM 42.0558 -80.6614 257° West 430 495 40,000  Level Cleveland Center
04:28PM 42.0328 -80.8181 259° West 430 495 40,000  Level Cleveland Center
04:29PM 42.0072 -80.9772 258° West 430 495 40,000  Level Cleveland Center
04:30PM 41.9817 -81.1361 258° West 430 495 40,000  Level Cleveland Center
04:31PM 41.9578 -81.2953 259° West 430 495 40,000  Level Cleveland Center
04:32PM 41.9336 -81.4511 258° West 430 495 40,000  Level Cleveland Center
04:33PM 41.9075 -81.6072 257° West 430 495 40,000  Level Cleveland Center
04:34PM 41.8808 -81.7656 257° West 430 495 40,000  Level Cleveland Center
04:35PM 41.8542 -81.9297 258° West 430 495 40,000  Level Cleveland Center
04:36PM 41.8272 -82.0850 257° West 430 495 40,000  Level Cleveland Center
04:37PM 41.8022 -82.2211 256° West 430 495 40,000  Level Cleveland Center
04:38PM 41.7772 -82.3736 258° West 430 495 40,000  Level Cleveland Center
04:39PM 41.7475 -82.5314 256° West 430 495 40,000  Level Cleveland Center
04:40PM 41.7217 -82.6864 257° West 430 495 40,000  Level Cleveland Center
04:41PM 41.6936 -82.8439 257° West 430 495 40,000  Level Cleveland Center
04:42PM 41.6678 -82.9986 257° West 430 495 40,000  Level Cleveland Center
04:43PM 41.6389 -83.1644 257° West 425 489 40,000  Level Cleveland Center
04:44PM 41.6103 -83.3186 256° West 431 496 40,000 -2,040 Level Cleveland Center
04:45PM 41.5814 -83.4758 256° West 431 496 36,000  Descending Cleveland Center
04:46PM 41.5547 -83.6272 257° West 431 496 40,000 1,500 Climbing Cleveland Center
04:47PM 41.5275 -83.7814 257° West 431 496 39,000 -960 Descending Cleveland Center
04:48PM 41.4978 -83.9433 256° West 431 496 38,100 -960 Descending Cleveland Center
04:49PM 41.4681 -84.1000 256° West 438 504 37,100 -1,200 Descending Cleveland Center
04:50PM 41.4600 -84.2297 265° West 438 504 35,700 -2,400 Descending Cleveland Center
04:51PM 41.4725 -84.4189 275° West 449 517 32,300 -2,100 Descending Cleveland Center
04:52PM 41.4842 -84.7297 273° West 470 541 30,000 -840 Descending Chicago Center
04:53PM 41.4900 -84.9061 273° West 474 545 30,000  Level Chicago Center
04:54PM 41.4964 -85.0806 273° West 472 543 30,000 -1,260 Level Chicago Center
04:56PM 41.5019 -85.2567 272° West 471 542 27,400 -2,700 Descending Chicago Center
04:57PM 41.5053 -85.4339 271° West 467 537 24,400 -2,040 Descending Chicago Center
04:58PM 41.5122 -85.6008 273° West 438 504 23,300 -1,500 Descending Chicago Center
04:59PM 41.5178 -85.7900 272° West 423 487 21,300 -2,160 Descending Chicago Center
05:00PM 41.5217 -85.9389 272° West 405 466 18,900 -2,340 Descending Chicago Center
05:01PM 41.5247 -86.0853 272° West 396 456 16,500 -2,400 Descending Chicago Center
05:02PM 41.5242 -86.2275 270° West 387 445 13,900 -2,520 Descending Chicago Center
05:03PM 41.5231 -86.3625 269° West 368 423 11,400 -1,920 Descending Chicago Center
05:04PM 41.5219 -86.4894 269° West 348 400 10,000 -720 Descending Chicago Center
05:05PM 41.5206 -86.6378 269° West 336 387 10,000  Level Chicago Center
05:06PM 41.5203 -86.7636 270° West 331 381 10,000  Level Chicago Center
05:07PM 41.5189 -86.8781 269° West 311 358 10,000 -660 Level Chicago Center
05:08PM 41.5172 -86.9814 269° West 284 327 8,700 -1,620 Descending Chicago Center
05:09PM 41.5175 -87.0858 270° West 284 327 6,700 -1,380 Descending Chicago Center
05:10PM 41.5486 -87.2022 290° West 283 326 5,900 -480 Descending Chicago Center
05:11PM 41.5667 -87.2500 297° West 278 320 6,000 -720 Climbing Chicago TRACON
05:12PM 41.6000 -87.3667 291° West 281 323 4,700 -1,140 Descending Chicago TRACON
05:12PM 41.6086 -87.3953 292° West 281 323 4,300 -600 Descending Chicago Center
05:13PM 41.6367 -87.4911 291° West 281 323 3,900 -180 Descending Chicago Center
05:14PM 41.6603 -87.5728 291° West 260 299 4,000 -480 Climbing Chicago Center
05:15PM 41.7131 -87.6486 313° West 243 280 3,000 -960 Descending Chicago Center
05:16PM 41.7333 -87.6833 308° West 240 276 2,700 -840 Descending Chicago TRACON
05:17PM 41.8000 -87.6833 360° North 185 213 1,800 -720 Descending Chicago TRACON
05:18PM 41.8167 -87.7167 304° West 156 180 1,300 -600 Descending Chicago TRACON
05:20PM 41.7833 -87.7500 334° Northwest  Level FlightAware Approximate